Cremona, Canada
Current Conditions -  °F | °C
As of 3:00 PM on Sunday 23 Nov 2014 (Local Time) from CYBW Reporting Station
Overcast Overcast  
Wind Chill: 33°   Ceiling: 13000
Heat Index: 37°   Visibility: 9mi
Dew Point: 23°   Wind: 6mph
Humidity: 56%   Direction: 210°SSW
Pressure: 29.64"   Gusts: NA
Location:  51.55°N, 114.47°W
Report Text: CYBW 232200Z AUTO 21005KT 9SM OVC130 03/M05 A2964 RMK SLP088
Loading
Personal Weather Stations






























Interactive Weather Map New forecast layout! Learn more

10-Day Weather Forecast

Advertisements
Track Severe Weather on mobile